createdAt,value
2023-05-19T00:01:49.236Z,12.00
2023-05-19T00:04:17.672Z,10.75
2023-05-19T00:06:46.706Z,10.80
2023-05-19T00:09:14.678Z,11.32
2023-05-19T00:11:42.901Z,10.77
2023-05-19T00:14:11.408Z,10.95
2023-05-19T00:16:42.299Z,12.13
2023-05-19T00:19:10.801Z,11.85
2023-05-19T00:21:39.324Z,10.73
2023-05-19T00:24:07.818Z,12.60
2023-05-19T00:26:35.549Z,11.48
2023-05-19T00:29:03.305Z,11.43
2023-05-19T00:31:31.743Z,12.07
2023-05-19T00:34:00.901Z,11.00
2023-05-19T00:36:28.598Z,11.68
2023-05-19T00:38:56.267Z,12.48
2023-05-19T00:41:23.958Z,11.05
2023-05-19T00:43:52.073Z,11.95
2023-05-19T00:46:19.911Z,12.88
2023-05-19T00:48:47.676Z,12.52
2023-05-19T00:51:17.305Z,11.40
2023-05-19T00:53:48.585Z,11.88
2023-05-19T00:56:17.240Z,12.13
2023-05-19T00:58:45.268Z,12.02
2023-05-19T01:01:14.589Z,11.80
2023-05-19T01:03:43.282Z,12.23
2023-05-19T01:06:12.239Z,11.35
2023-05-19T01:08:41.394Z,11.25
2023-05-19T01:11:09.273Z,11.75
2023-05-19T01:13:39.124Z,12.23
2023-05-19T01:16:13.520Z,11.70
2023-05-19T01:18:47.124Z,11.45
2023-05-19T01:21:36.620Z,11.70
2023-05-19T01:24:15.210Z,11.70
2023-05-19T01:27:06.859Z,11.15
2023-05-19T01:29:43.352Z,12.33
2023-05-19T01:32:12.968Z,11.80
2023-05-19T01:34:43.667Z,11.18
2023-05-19T01:37:11.527Z,11.85
2023-05-19T01:39:39.661Z,11.30
2023-05-19T01:42:07.983Z,12.73
2023-05-19T01:44:35.869Z,11.60
2023-05-19T01:47:03.932Z,12.02
2023-05-19T01:49:32.924Z,12.05
2023-05-19T01:52:00.556Z,12.45
2023-05-19T01:54:28.202Z,11.70
2023-05-19T01:57:01.420Z,12.27
2023-05-19T01:59:37.693Z,12.25
2023-05-19T02:02:11.165Z,12.05
2023-05-19T02:04:45.153Z,12.63
2023-05-19T02:07:18.438Z,12.10
2023-05-19T02:09:53.455Z,12.05
2023-05-19T02:12:26.534Z,12.57
2023-05-19T02:14:57.938Z,11.95
2023-05-19T02:17:29.067Z,12.68
2023-05-19T02:19:58.115Z,11.55
2023-05-19T02:22:26.178Z,11.90
2023-05-19T02:24:53.846Z,11.80
2023-05-19T02:27:21.497Z,12.20
2023-05-19T02:29:49.176Z,12.18
2023-05-19T02:32:16.977Z,12.30
2023-05-19T02:34:45.600Z,12.02
2023-05-19T02:37:15.389Z,11.98
2023-05-19T02:39:43.337Z,11.68
2023-05-19T02:42:12.047Z,12.57
2023-05-19T02:44:39.711Z,12.15
2023-05-19T02:47:07.419Z,13.02
2023-05-19T02:49:36.073Z,12.25
2023-05-19T02:52:04.065Z,11.65
2023-05-19T02:54:33.938Z,11.50
2023-05-19T02:57:02.122Z,11.77
2023-05-19T02:59:31.324Z,12.73
2023-05-19T03:02:01.176Z,12.73
2023-05-19T03:04:29.423Z,12.80
2023-05-19T03:06:57.329Z,12.15
2023-05-19T03:09:25.017Z,12.60
2023-05-19T03:11:54.018Z,13.32
2023-05-19T03:14:23.841Z,12.45
2023-05-19T03:16:51.780Z,12.38
2023-05-19T03:19:19.552Z,13.00
2023-05-19T03:21:47.511Z,12.43
2023-05-19T03:24:15.141Z,12.52
2023-05-19T03:26:43.137Z,12.27
2023-05-19T03:29:12.123Z,13.02
2023-05-19T03:31:39.788Z,12.13
2023-05-19T03:34:07.407Z,12.88
2023-05-19T03:36:39.318Z,12.43
2023-05-19T03:39:07.228Z,13.13
2023-05-19T03:41:34.863Z,13.25
2023-05-19T03:44:02.958Z,12.15
2023-05-19T03:46:31.996Z,12.18
2023-05-19T03:48:59.668Z,11.85
2023-05-19T03:51:28.668Z,11.43
2023-05-19T03:53:56.369Z,12.60
2023-05-19T03:56:26.478Z,12.57
2023-05-19T03:58:54.776Z,12.38
2023-05-19T04:01:22.483Z,12.82
2023-05-19T04:03:51.516Z,11.60
2023-05-19T04:06:20.033Z,12.88
2023-05-19T04:08:47.813Z,13.80
2023-05-19T04:11:15.540Z,12.90
2023-05-19T04:13:44.569Z,12.70
2023-05-19T04:16:12.888Z,12.25
2023-05-19T04:18:40.680Z,11.88
2023-05-19T04:21:09.700Z,12.23
2023-05-19T04:23:37.314Z,11.75
2023-05-19T04:26:06.777Z,11.90
2023-05-19T04:28:38.831Z,11.85
2023-05-19T04:31:10.614Z,11.95
2023-05-19T04:33:38.297Z,12.20
2023-05-19T04:36:08.620Z,11.98
2023-05-19T04:38:40.086Z,11.80
2023-05-19T04:41:10.933Z,12.73
2023-05-19T04:43:41.745Z,12.98
2023-05-19T04:46:12.224Z,13.68
2023-05-19T04:48:41.056Z,12.93
2023-05-19T04:51:08.774Z,12.20
2023-05-19T04:53:40.149Z,12.88
2023-05-19T04:56:08.152Z,12.40
2023-05-19T04:58:35.924Z,12.77
2023-05-19T05:01:03.895Z,12.40
2023-05-19T05:03:33.245Z,12.85
2023-05-19T05:06:01.034Z,12.93
2023-05-19T05:08:30.227Z,13.00
2023-05-19T05:10:59.821Z,11.75
2023-05-19T05:13:28.027Z,12.25
2023-05-19T05:15:56.345Z,12.77
2023-05-19T05:18:24.592Z,11.88
2023-05-19T05:20:52.681Z,13.63
2023-05-19T05:23:20.827Z,13.23
2023-05-19T05:25:49.035Z,12.68
2023-05-19T05:28:18.135Z,12.52
2023-05-19T05:30:46.420Z,12.73
2023-05-19T05:33:14.207Z,12.13
2023-05-19T05:35:42.075Z,11.88
2023-05-19T05:38:11.486Z,12.98
2023-05-19T05:40:39.317Z,12.82
2023-05-19T05:43:07.019Z,11.57
2023-05-19T05:45:36.135Z,12.32
2023-05-19T05:48:04.476Z,12.25
2023-05-19T05:50:32.776Z,11.75
2023-05-19T05:53:02.782Z,12.10
2023-05-19T05:55:31.415Z,13.15
2023-05-19T05:58:02.039Z,13.43
2023-05-19T06:00:29.918Z,12.75
2023-05-19T06:02:59.221Z,12.73
2023-05-19T06:05:27.107Z,12.23
2023-05-19T06:07:54.836Z,12.43
2023-05-19T06:10:22.767Z,12.15
2023-05-19T06:12:50.526Z,12.18
2023-05-19T06:15:18.181Z,12.65
2023-05-19T06:17:45.914Z,11.98
2023-05-19T06:20:16.211Z,12.23
2023-05-19T06:22:43.809Z,11.70
2023-05-19T06:25:11.435Z,13.23
2023-05-19T06:27:39.084Z,12.27
2023-05-19T06:30:08.642Z,12.02
2023-05-19T06:32:36.392Z,11.57
2023-05-19T06:35:04.265Z,12.00
2023-05-19T06:37:33.431Z,11.80
2023-05-19T06:40:01.340Z,11.50
2023-05-19T06:42:29.004Z,11.77
2023-05-19T06:44:56.668Z,12.57
2023-05-19T06:47:24.360Z,12.52
2023-05-19T06:49:55.155Z,11.95
2023-05-19T06:52:23.719Z,11.88
2023-05-19T06:54:52.699Z,11.82
2023-05-19T06:57:21.020Z,11.57
2023-05-19T06:59:48.698Z,11.75
2023-05-19T07:02:16.453Z,12.15
2023-05-19T07:04:44.327Z,12.20
2023-05-19T07:07:11.988Z,12.10
2023-05-19T07:09:40.090Z,11.40
2023-05-19T07:12:09.131Z,11.20
2023-05-19T07:14:38.843Z,11.45
2023-05-19T07:17:06.476Z,11.27
2023-05-19T07:19:34.118Z,11.85
2023-05-19T07:22:01.785Z,12.15
2023-05-19T07:24:30.450Z,11.73
2023-05-19T07:35:16.778Z,12.73
2023-05-19T07:37:44.468Z,12.45
2023-05-19T07:40:12.699Z,12.23
2023-05-19T07:42:40.349Z,12.35
2023-05-19T07:45:09.001Z,13.07
2023-05-19T07:47:36.677Z,12.45
2023-05-19T07:50:04.441Z,12.70
2023-05-19T07:52:33.404Z,12.98
2023-05-19T07:55:01.164Z,13.18
2023-05-19T07:57:28.816Z,13.95
2023-05-19T07:59:56.559Z,13.40
2023-05-19T08:02:24.289Z,13.10
2023-05-19T08:04:53.167Z,12.52
2023-05-19T08:07:20.935Z,12.02
2023-05-19T08:09:49.968Z,12.82
2023-05-19T08:12:17.600Z,12.05
2023-05-19T08:14:45.913Z,13.55
2023-05-19T08:17:13.545Z,12.15
2023-05-19T08:19:41.173Z,12.48
2023-05-19T08:22:08.801Z,13.23
2023-05-19T08:24:36.591Z,12.48
2023-05-19T08:27:06.758Z,12.30
2023-05-19T08:29:34.453Z,12.40
2023-05-19T08:32:02.789Z,12.40
2023-05-19T08:34:30.478Z,13.40
2023-05-19T08:36:59.706Z,11.90
2023-05-19T08:39:27.584Z,12.27
2023-05-19T08:41:55.348Z,13.00
2023-05-19T08:44:24.377Z,13.63
2023-05-19T08:46:53.961Z,12.75
2023-05-19T08:49:25.688Z,12.50
2023-05-19T08:51:58.533Z,12.43
2023-05-19T08:54:27.533Z,13.25
2023-05-19T08:56:55.553Z,11.90
2023-05-19T08:59:24.615Z,13.57
2023-05-19T09:01:52.429Z,12.63
2023-05-19T09:04:20.684Z,13.70
2023-05-19T09:06:48.524Z,13.65
2023-05-19T09:09:17.354Z,14.15
2023-05-19T09:11:47.093Z,14.05
2023-05-19T09:14:14.756Z,12.73
2023-05-19T09:16:44.036Z,13.55
2023-05-19T09:19:16.406Z,13.05
2023-05-19T09:21:45.744Z,13.90
2023-05-19T09:24:13.464Z,13.75
2023-05-19T09:26:43.067Z,14.40
2023-05-19T09:29:14.519Z,14.45
2023-05-19T09:31:49.878Z,14.88
2023-05-19T09:34:17.669Z,14.23
2023-05-19T09:36:45.620Z,14.68
2023-05-19T09:39:16.491Z,14.88
2023-05-19T09:41:44.398Z,15.95
2023-05-19T09:44:15.375Z,15.30
2023-05-19T09:46:50.593Z,15.43
2023-05-19T09:49:22.643Z,15.32
2023-05-19T09:51:52.141Z,15.80
2023-05-19T09:54:21.449Z,15.15
2023-05-19T09:56:53.073Z,14.68
2023-05-19T09:59:21.217Z,15.93
2023-05-19T10:01:50.403Z,15.38
2023-05-19T10:04:18.338Z,16.13
2023-05-19T10:06:46.176Z,16.20
2023-05-19T10:09:14.140Z,16.55
2023-05-19T10:11:42.416Z,15.50
2023-05-19T10:14:10.254Z,16.20
2023-05-19T10:16:38.989Z,16.25
2023-05-19T10:19:08.935Z,15.60
2023-05-19T10:21:36.762Z,17.67
2023-05-19T10:24:04.662Z,15.52
2023-05-19T10:26:32.655Z,15.55
2023-05-19T10:29:00.436Z,16.63
2023-05-19T10:31:28.178Z,15.15
2023-05-19T10:34:07.940Z,16.45
2023-05-19T10:36:45.903Z,14.70
2023-05-19T10:39:18.207Z,15.25
2023-05-19T10:41:54.316Z,15.65
2023-05-19T10:44:31.701Z,15.23
2023-05-19T10:46:59.443Z,14.10
2023-05-19T10:49:27.197Z,14.43
2023-05-19T10:51:57.863Z,15.23
2023-05-19T10:54:43.196Z,15.98
2023-05-19T10:57:16.272Z,15.90
2023-05-19T10:59:45.137Z,15.73
2023-05-19T11:02:39.637Z,15.10
2023-05-19T11:05:11.382Z,15.40
2023-05-19T11:07:42.407Z,16.35
2023-05-19T11:10:10.677Z,15.82
2023-05-19T11:12:42.993Z,15.02
2023-05-19T11:15:15.172Z,15.05
2023-05-19T11:20:22.550Z,14.18
2023-05-19T11:23:06.293Z,15.40
2023-05-19T11:25:47.856Z,15.27
2023-05-19T11:28:17.306Z,15.53
2023-05-19T11:30:46.443Z,16.65
2023-05-19T11:33:14.569Z,14.68
2023-05-19T11:35:43.280Z,15.68
2023-05-19T11:38:12.402Z,15.68
2023-05-19T11:40:40.454Z,15.07
2023-05-19T11:43:08.114Z,14.27
2023-05-19T11:45:36.268Z,15.02
2023-05-19T11:48:05.344Z,14.65
2023-05-19T11:50:33.275Z,15.77
2023-05-19T11:53:02.107Z,16.23
2023-05-19T11:55:31.883Z,16.67
2023-05-19T12:00:32.209Z,16.27
2023-05-19T12:03:00.249Z,16.23
2023-05-19T12:05:28.310Z,17.25
2023-05-19T12:07:56.212Z,16.95
2023-05-19T12:10:24.388Z,16.42
2023-05-19T12:12:53.374Z,17.00
2023-05-19T12:15:22.004Z,17.83
2023-05-19T12:17:57.132Z,17.30
2023-05-19T12:20:24.851Z,17.67
2023-05-19T12:22:52.910Z,16.48
2023-05-19T12:25:21.383Z,18.85
2023-05-19T12:27:49.689Z,17.15
2023-05-19T12:30:19.062Z,17.23
2023-05-19T12:32:49.127Z,17.58
2023-05-19T12:35:17.057Z,18.70
2023-05-19T12:37:44.778Z,16.77
2023-05-19T12:40:16.980Z,16.95
2023-05-19T12:45:13.276Z,16.38
2023-05-19T12:47:42.387Z,16.42
2023-05-19T12:50:11.273Z,17.73
2023-05-19T12:52:43.846Z,18.52
2023-05-19T12:55:12.108Z,17.10
2023-05-19T12:57:41.054Z,17.38
2023-05-19T13:00:11.685Z,18.23
2023-05-19T13:02:59.716Z,17.85
2023-05-19T13:05:27.741Z,18.27
2023-05-19T13:07:58.943Z,17.70
2023-05-19T13:10:28.041Z,17.10
2023-05-19T13:12:55.968Z,17.33
2023-05-19T13:15:26.142Z,17.13
2023-05-19T13:17:54.962Z,17.17
2023-05-19T13:20:26.929Z,16.88
2023-05-19T13:22:57.020Z,17.35
2023-05-19T13:25:24.732Z,17.42
2023-05-19T13:27:52.410Z,17.58
2023-05-19T13:30:20.947Z,17.90
2023-05-19T13:32:48.723Z,17.77
2023-05-19T13:35:16.559Z,16.73
2023-05-19T13:37:45.681Z,17.25
2023-05-19T13:40:15.697Z,17.25
2023-05-19T13:42:43.392Z,18.10
2023-05-19T13:45:11.414Z,17.92
2023-05-19T13:47:39.276Z,17.33
2023-05-19T13:50:07.901Z,18.27
2023-05-19T13:52:35.667Z,17.42
2023-05-19T13:55:05.134Z,18.38
2023-05-19T13:57:33.148Z,18.48
2023-05-19T14:00:04.014Z,18.08
2023-05-19T14:02:32.136Z,18.20
2023-05-19T14:04:59.927Z,17.98
2023-05-19T14:07:28.285Z,19.35
2023-05-19T14:09:56.298Z,16.75
2023-05-19T14:12:35.391Z,17.75
2023-05-19T14:15:09.150Z,17.27
2023-05-19T14:17:37.570Z,18.25
2023-05-19T14:20:07.478Z,17.38
2023-05-19T14:22:35.252Z,17.92
2023-05-19T14:25:03.145Z,18.38
2023-05-19T14:27:32.163Z,18.05
2023-05-19T14:29:59.834Z,17.92
2023-05-19T14:32:30.109Z,16.80
2023-05-19T14:34:58.260Z,17.65
2023-05-19T14:37:27.549Z,19.05
2023-05-19T14:39:55.454Z,17.10
2023-05-19T14:42:23.188Z,17.55
2023-05-19T14:44:52.241Z,17.30
2023-05-19T14:47:19.930Z,17.80
2023-05-19T14:49:47.723Z,18.35
2023-05-19T14:52:15.496Z,17.25
2023-05-19T14:54:43.136Z,17.70
2023-05-19T14:57:10.808Z,17.63
2023-05-19T14:59:38.598Z,17.13
2023-05-19T15:02:08.352Z,16.98
2023-05-19T15:04:36.045Z,18.23
2023-05-19T15:09:34.335Z,17.35
2023-05-19T15:12:02.131Z,17.15
2023-05-19T15:14:31.001Z,16.20
2023-05-19T15:16:59.268Z,17.75
2023-05-19T15:19:28.562Z,17.05
2023-05-19T15:21:56.406Z,18.20
2023-05-19T15:24:24.256Z,18.70
2023-05-19T15:26:52.024Z,18.35
2023-05-19T15:29:19.807Z,17.88
2023-05-19T15:31:47.679Z,17.02
2023-05-19T15:34:15.550Z,18.10
2023-05-19T15:36:44.637Z,18.17
2023-05-19T15:39:12.298Z,17.63
2023-05-19T15:41:40.880Z,15.80
2023-05-19T15:44:08.565Z,18.52
2023-05-19T15:46:36.291Z,18.92
2023-05-19T15:49:04.453Z,18.00
2023-05-19T15:51:32.332Z,16.75
2023-05-19T15:54:01.434Z,17.33
2023-05-19T15:56:29.142Z,18.42
2023-05-19T15:58:56.956Z,18.00
2023-05-19T16:01:25.134Z,17.15
2023-05-19T16:03:53.070Z,17.40
2023-05-19T16:06:20.980Z,17.35
2023-05-19T16:08:48.628Z,18.23
2023-05-19T16:11:18.316Z,16.92
2023-05-19T16:13:45.954Z,17.17
2023-05-19T16:16:13.774Z,18.17
2023-05-19T16:18:41.894Z,16.65
2023-05-19T16:21:09.585Z,19.00
2023-05-19T16:23:37.275Z,17.60
2023-05-19T16:26:05.427Z,17.80
2023-05-19T16:28:34.440Z,18.10
2023-05-19T16:31:02.182Z,16.83
2023-05-19T16:33:30.125Z,17.50
2023-05-19T16:35:59.796Z,17.50
2023-05-19T16:38:27.702Z,18.02
2023-05-19T16:40:55.352Z,17.95
2023-05-19T16:43:22.931Z,19.55
2023-05-19T16:45:51.998Z,17.73
2023-05-19T16:48:19.738Z,17.48
2023-05-19T16:50:48.999Z,18.45
2023-05-19T16:53:16.649Z,17.45
2023-05-19T16:55:44.308Z,18.30
2023-05-19T16:58:12.262Z,18.13
2023-05-19T17:00:39.913Z,18.63
2023-05-19T17:03:08.958Z,17.42
2023-05-19T17:05:38.968Z,16.77
2023-05-19T17:08:06.694Z,18.45
2023-05-19T17:10:34.598Z,18.48
2023-05-19T17:13:02.386Z,17.88
2023-05-19T17:15:30.305Z,18.98
2023-05-19T17:17:58.264Z,16.85
2023-05-19T17:20:27.338Z,17.67
2023-05-19T17:22:54.969Z,18.52
2023-05-19T17:25:22.628Z,17.98
2023-05-19T17:27:51.437Z,17.98
2023-05-19T17:30:19.188Z,18.10
2023-05-19T17:32:47.667Z,17.48
2023-05-19T17:35:15.384Z,17.67
2023-05-19T17:37:44.458Z,18.77
2023-05-19T17:40:13.137Z,17.35
2023-05-19T17:42:40.790Z,17.38
2023-05-19T17:45:12.019Z,18.25
2023-05-19T17:47:39.777Z,17.70
2023-05-19T17:50:08.430Z,17.73
2023-05-19T17:52:36.483Z,19.40
2023-05-19T17:55:06.944Z,19.73
2023-05-19T17:57:34.961Z,17.52
2023-05-19T18:00:03.855Z,18.55
2023-05-19T18:02:32.153Z,16.77
2023-05-19T18:05:00.383Z,18.02
2023-05-19T18:07:28.719Z,17.02
2023-05-19T18:09:57.228Z,16.63
2023-05-19T18:12:26.262Z,18.58
2023-05-19T18:14:53.945Z,17.85
2023-05-19T18:17:21.580Z,19.67
2023-05-19T18:19:49.413Z,17.05
2023-05-19T18:22:17.709Z,17.77
2023-05-19T18:24:45.354Z,18.10
2023-05-19T18:27:13.078Z,19.23
2023-05-19T18:29:42.089Z,19.05
2023-05-19T18:32:09.932Z,18.58
2023-05-19T18:34:37.620Z,19.20
2023-05-19T18:37:05.608Z,18.13
2023-05-19T18:39:33.437Z,19.33
2023-05-19T18:42:01.663Z,18.67
2023-05-19T18:44:29.438Z,18.10
2023-05-19T18:46:58.512Z,18.38
2023-05-19T18:49:26.228Z,19.08
2023-05-19T18:51:53.893Z,18.77
2023-05-19T18:54:21.853Z,18.75
2023-05-19T18:56:49.604Z,18.48
2023-05-19T18:59:17.288Z,18.35
2023-05-19T19:01:45.234Z,19.38
2023-05-19T19:04:16.594Z,18.30
2023-05-19T19:06:44.306Z,17.57
2023-05-19T19:09:12.095Z,17.92
2023-05-19T19:11:39.776Z,16.83
2023-05-19T19:14:07.670Z,18.27
2023-05-19T19:16:35.451Z,18.00
2023-05-19T19:19:03.277Z,17.92
2023-05-19T19:21:32.534Z,19.70
2023-05-19T19:24:01.938Z,17.50
2023-05-19T19:26:29.815Z,18.30
2023-05-19T19:28:57.451Z,19.23
2023-05-19T19:31:25.871Z,19.45
2023-05-19T19:33:53.541Z,18.65
2023-05-19T19:36:21.221Z,17.98
2023-05-19T19:38:50.233Z,17.60
2023-05-19T19:41:19.775Z,17.83
2023-05-19T19:43:47.406Z,18.35
2023-05-19T19:46:16.405Z,19.02
2023-05-19T19:54:09.852Z,19.02
2023-05-19T19:56:37.471Z,17.02
2023-05-19T19:59:05.142Z,18.55
2023-05-19T20:01:33.706Z,17.67
2023-05-19T20:04:01.714Z,18.20
2023-05-19T20:06:29.338Z,18.02
2023-05-19T20:08:56.935Z,16.98
2023-05-19T20:11:26.773Z,16.73
2023-05-19T20:13:54.522Z,17.40
2023-05-19T20:16:22.249Z,17.35
2023-05-19T20:18:50.523Z,17.40
2023-05-19T20:21:18.174Z,18.50
2023-05-19T20:23:46.177Z,18.60
2023-05-19T20:26:13.848Z,17.60
2023-05-19T20:28:42.917Z,16.83
2023-05-19T20:31:10.700Z,18.10
2023-05-19T20:33:38.304Z,19.35
2023-05-19T20:36:06.521Z,19.02
2023-05-19T20:38:34.153Z,17.77
2023-05-19T20:41:03.802Z,18.77
2023-05-19T20:43:32.798Z,18.58
2023-05-19T20:46:03.645Z,19.80
2023-05-19T20:48:31.546Z,20.15
2023-05-19T20:50:59.104Z,19.70
2023-05-19T20:53:26.767Z,19.77
2023-05-19T20:55:54.374Z,19.85
2023-05-19T20:58:22.059Z,20.02
2023-05-19T21:00:56.764Z,19.52
2023-05-19T21:03:27.059Z,20.10
2023-05-19T21:05:55.149Z,19.95
2023-05-19T21:08:22.936Z,20.02
2023-05-19T21:10:50.574Z,18.50
2023-05-19T21:13:18.812Z,19.95
2023-05-19T21:15:46.413Z,19.52
2023-05-19T21:18:14.228Z,17.98
2023-05-19T21:20:43.214Z,19.80
2023-05-19T21:23:10.865Z,19.92
2023-05-19T21:25:38.441Z,18.90
2023-05-19T21:28:06.396Z,17.92
2023-05-19T21:30:34.228Z,19.52
2023-05-19T21:33:02.071Z,18.65
2023-05-19T21:35:29.785Z,18.80
2023-05-19T21:38:03.897Z,18.85
2023-05-19T21:40:36.705Z,18.38
2023-05-19T21:43:05.822Z,18.38
2023-05-19T21:45:33.547Z,18.65
2023-05-19T21:48:01.218Z,19.40
2023-05-19T21:50:28.860Z,18.23
2023-05-19T21:52:57.795Z,18.52
2023-05-19T21:55:25.456Z,17.92
2023-05-19T21:57:53.061Z,18.60
2023-05-19T22:00:20.721Z,18.90
2023-05-19T22:02:48.450Z,18.88
2023-05-19T22:05:16.161Z,19.73
2023-05-19T22:07:43.841Z,19.58
2023-05-19T22:10:13.203Z,19.52
2023-05-19T22:12:41.033Z,19.33
2023-05-19T22:15:09.913Z,19.75
2023-05-19T22:17:37.553Z,19.42
2023-05-19T22:20:06.122Z,20.77
2023-05-19T22:22:33.771Z,19.17
2023-05-19T22:25:01.446Z,18.95
2023-05-19T22:27:30.382Z,19.65
2023-05-19T22:29:59.654Z,18.65
2023-05-19T22:32:27.343Z,19.67
2023-05-19T22:34:55.030Z,20.15
2023-05-19T22:37:23.747Z,19.13
2023-05-19T22:39:51.630Z,20.15
2023-05-19T22:42:19.560Z,20.02
2023-05-19T22:44:48.553Z,19.60
2023-05-19T22:47:16.339Z,18.67
2023-05-19T22:49:44.285Z,20.08
2023-05-19T22:52:12.291Z,19.52
2023-05-19T22:54:39.962Z,22.80
2023-05-19T22:57:07.560Z,19.33
2023-05-19T22:59:35.506Z,19.45
2023-05-19T23:02:04.646Z,18.92
2023-05-19T23:04:32.972Z,20.25
2023-05-19T23:07:00.827Z,18.13
2023-05-19T23:09:28.483Z,19.48
2023-05-19T23:11:56.104Z,18.88
2023-05-19T23:14:25.808Z,19.38
2023-05-19T23:16:53.500Z,19.55
2023-05-19T23:19:22.708Z,20.08
2023-05-19T23:21:50.459Z,19.45
2023-05-19T23:24:18.094Z,19.20
2023-05-19T23:26:45.913Z,19.92
2023-05-19T23:29:14.749Z,19.17
2023-05-19T23:31:42.894Z,18.75
2023-05-19T23:34:11.282Z,19.70
2023-05-19T23:36:40.277Z,18.48
2023-05-19T23:39:07.927Z,19.98
2023-05-19T23:41:36.652Z,19.70
2023-05-19T23:44:04.420Z,19.80
2023-05-19T23:46:32.146Z,18.45
2023-05-19T23:48:59.843Z,19.80
2023-05-19T23:51:27.605Z,19.05
2023-05-19T23:53:56.578Z,19.17
2023-05-19T23:56:24.164Z,19.77
2023-05-19T23:58:51.850Z,19.40
